sensor_id;sensor_type;location;lat;lon;timestamp;P1;durP1;ratioP1;P2;durP2;ratioP2
17365;SDS011;8800;50.118;9.900;2023-08-20T00:00:02;9.60;;;7.63;;
17365;SDS011;8800;50.118;9.900;2023-08-20T00:02:33;13.65;;;7.85;;
17365;SDS011;8800;50.118;9.900;2023-08-20T00:05:02;17.55;;;8.15;;
17365;SDS011;8800;50.118;9.900;2023-08-20T00:07:30;12.60;;;8.02;;
17365;SDS011;8800;50.118;9.900;2023-08-20T00:09:56;10.15;;;7.22;;
17365;SDS011;8800;50.118;9.900;2023-08-20T00:12:23;12.13;;;7.13;;
17365;SDS011;8800;50.118;9.900;2023-08-20T00:14:51;13.30;;;7.95;;
17365;SDS011;8800;50.118;9.900;2023-08-20T00:17:18;13.93;;;8.40;;
17365;SDS011;8800;50.118;9.900;2023-08-20T00:19:46;11.80;;;8.13;;
17365;SDS011;8800;50.118;9.900;2023-08-20T00:22:13;12.05;;;7.65;;
17365;SDS011;8800;50.118;9.900;2023-08-20T00:24:40;10.98;;;7.32;;
17365;SDS011;8800;50.118;9.900;2023-08-20T00:27:06;13.00;;;7.63;;
17365;SDS011;8800;50.118;9.900;2023-08-20T00:29:33;12.40;;;7.75;;
17365;SDS011;8800;50.118;9.900;2023-08-20T00:32:00;11.85;;;7.40;;
17365;SDS011;8800;50.118;9.900;2023-08-20T00:34:26;12.02;;;7.38;;
17365;SDS011;8800;50.118;9.900;2023-08-20T00:36:54;11.88;;;7.85;;
17365;SDS011;8800;50.118;9.900;2023-08-20T00:39:21;13.50;;;8.10;;
17365;SDS011;8800;50.118;9.900;2023-08-20T00:41:48;15.65;;;8.18;;
17365;SDS011;8800;50.118;9.900;2023-08-20T00:44:14;10.77;;;7.78;;
17365;SDS011;8800;50.118;9.900;2023-08-20T00:46:41;11.98;;;7.57;;
17365;SDS011;8800;50.118;9.900;2023-08-20T00:49:07;12.82;;;7.75;;
17365;SDS011;8800;50.118;9.900;2023-08-20T00:51:33;12.32;;;8.32;;
17365;SDS011;8800;50.118;9.900;2023-08-20T00:54:02;10.57;;;7.35;;
17365;SDS011;8800;50.118;9.900;2023-08-20T00:56:29;12.88;;;8.32;;
17365;SDS011;8800;50.118;9.900;2023-08-20T00:58:55;16.70;;;7.45;;
17365;SDS011;8800;50.118;9.900;2023-08-20T01:01:23;14.85;;;7.90;;
17365;SDS011;8800;50.118;9.900;2023-08-20T01:03:50;10.13;;;7.68;;
17365;SDS011;8800;50.118;9.900;2023-08-20T01:06:19;12.23;;;7.45;;
17365;SDS011;8800;50.118;9.900;2023-08-20T01:08:47;11.48;;;7.38;;
17365;SDS011;8800;50.118;9.900;2023-08-20T01:11:21;11.63;;;7.28;;
17365;SDS011;8800;50.118;9.900;2023-08-20T01:13:51;11.75;;;7.43;;
17365;SDS011;8800;50.118;9.900;2023-08-20T01:16:20;10.88;;;7.38;;
17365;SDS011;8800;50.118;9.900;2023-08-20T01:18:47;11.32;;;7.50;;
17365;SDS011;8800;50.118;9.900;2023-08-20T01:21:16;11.05;;;7.38;;
17365;SDS011;8800;50.118;9.900;2023-08-20T01:23:56;14.85;;;7.53;;
17365;SDS011;8800;50.118;9.900;2023-08-20T01:26:35;10.43;;;7.32;;
17365;SDS011;8800;50.118;9.900;2023-08-20T01:29:07;12.00;;;7.60;;
17365;SDS011;8800;50.118;9.900;2023-08-20T01:31:34;11.93;;;8.18;;
17365;SDS011;8800;50.118;9.900;2023-08-20T01:34:01;10.43;;;7.35;;
17365;SDS011;8800;50.118;9.900;2023-08-20T01:36:28;11.52;;;7.47;;
17365;SDS011;8800;50.118;9.900;2023-08-20T01:38:55;9.95;;;7.07;;
17365;SDS011;8800;50.118;9.900;2023-08-20T01:41:22;10.27;;;7.18;;
17365;SDS011;8800;50.118;9.900;2023-08-20T01:43:48;11.52;;;7.85;;
17365;SDS011;8800;50.118;9.900;2023-08-20T01:46:16;17.55;;;8.00;;
17365;SDS011;8800;50.118;9.900;2023-08-20T01:48:42;12.07;;;7.88;;
17365;SDS011;8800;50.118;9.900;2023-08-20T01:51:10;10.95;;;7.90;;
17365;SDS011;8800;50.118;9.900;2023-08-20T01:53:36;9.40;;;7.15;;
17365;SDS011;8800;50.118;9.900;2023-08-20T01:56:03;10.88;;;7.78;;
17365;SDS011;8800;50.118;9.900;2023-08-20T01:58:29;10.98;;;8.57;;
17365;SDS011;8800;50.118;9.900;2023-08-20T02:00:57;15.25;;;8.40;;
17365;SDS011;8800;50.118;9.900;2023-08-20T02:03:25;10.48;;;8.07;;
17365;SDS011;8800;50.118;9.900;2023-08-20T02:05:51;11.30;;;8.20;;
17365;SDS011;8800;50.118;9.900;2023-08-20T02:08:18;14.32;;;7.65;;
17365;SDS011;8800;50.118;9.900;2023-08-20T02:10:45;10.23;;;8.65;;
17365;SDS011;8800;50.118;9.900;2023-08-20T02:13:11;14.77;;;8.07;;
17365;SDS011;8800;50.118;9.900;2023-08-20T02:15:38;16.08;;;8.32;;
17365;SDS011;8800;50.118;9.900;2023-08-20T02:18:05;13.65;;;7.65;;
17365;SDS011;8800;50.118;9.900;2023-08-20T02:20:33;8.77;;;7.25;;
17365;SDS011;8800;50.118;9.900;2023-08-20T02:23:00;15.80;;;8.20;;
17365;SDS011;8800;50.118;9.900;2023-08-20T02:25:27;10.00;;;7.53;;
17365;SDS011;8800;50.118;9.900;2023-08-20T02:27:53;11.40;;;7.45;;
17365;SDS011;8800;50.118;9.900;2023-08-20T02:30:20;10.75;;;8.20;;
17365;SDS011;8800;50.118;9.900;2023-08-20T02:32:47;12.10;;;7.82;;
17365;SDS011;8800;50.118;9.900;2023-08-20T02:35:14;12.15;;;7.45;;
17365;SDS011;8800;50.118;9.900;2023-08-20T02:37:43;10.80;;;7.78;;
17365;SDS011;8800;50.118;9.900;2023-08-20T02:40:10;11.40;;;8.00;;
17365;SDS011;8800;50.118;9.900;2023-08-20T02:42:36;10.07;;;8.40;;
17365;SDS011;8800;50.118;9.900;2023-08-20T02:45:03;14.27;;;8.65;;
17365;SDS011;8800;50.118;9.900;2023-08-20T02:47:30;12.50;;;8.57;;
17365;SDS011;8800;50.118;9.900;2023-08-20T02:49:57;14.45;;;7.75;;
17365;SDS011;8800;50.118;9.900;2023-08-20T02:52:23;10.15;;;7.85;;
17365;SDS011;8800;50.118;9.900;2023-08-20T02:54:51;11.07;;;8.07;;
17365;SDS011;8800;50.118;9.900;2023-08-20T02:57:18;12.73;;;7.30;;
17365;SDS011;8800;50.118;9.900;2023-08-20T02:59:44;11.95;;;7.28;;
17365;SDS011;8800;50.118;9.900;2023-08-20T03:02:11;9.05;;;7.18;;
17365;SDS011;8800;50.118;9.900;2023-08-20T03:04:37;9.82;;;7.03;;
17365;SDS011;8800;50.118;9.900;2023-08-20T03:07:04;16.02;;;7.50;;
17365;SDS011;8800;50.118;9.900;2023-08-20T03:09:32;8.60;;;7.68;;
17365;SDS011;8800;50.118;9.900;2023-08-20T03:12:00;11.50;;;7.82;;
17365;SDS011;8800;50.118;9.900;2023-08-20T03:14:27;10.05;;;7.53;;
17365;SDS011;8800;50.118;9.900;2023-08-20T03:16:53;10.02;;;7.32;;
17365;SDS011;8800;50.118;9.900;2023-08-20T03:19:20;13.30;;;7.43;;
17365;SDS011;8800;50.118;9.900;2023-08-20T03:21:46;12.23;;;8.02;;
17365;SDS011;8800;50.118;9.900;2023-08-20T03:24:13;14.07;;;7.55;;
17365;SDS011;8800;50.118;9.900;2023-08-20T03:26:40;11.20;;;7.43;;
17365;SDS011;8800;50.118;9.900;2023-08-20T03:29:08;12.52;;;7.80;;
17365;SDS011;8800;50.118;9.900;2023-08-20T03:31:34;9.23;;;6.68;;
17365;SDS011;8800;50.118;9.900;2023-08-20T03:34:01;11.45;;;7.40;;
17365;SDS011;8800;50.118;9.900;2023-08-20T03:36:27;9.80;;;7.63;;
17365;SDS011;8800;50.118;9.900;2023-08-20T03:38:54;11.30;;;7.70;;
17365;SDS011;8800;50.118;9.900;2023-08-20T03:41:20;8.43;;;7.10;;
17365;SDS011;8800;50.118;9.900;2023-08-20T03:43:47;12.18;;;8.43;;
17365;SDS011;8800;50.118;9.900;2023-08-20T03:46:15;14.85;;;8.50;;
17365;SDS011;8800;50.118;9.900;2023-08-20T03:48:42;11.55;;;7.85;;
17365;SDS011;8800;50.118;9.900;2023-08-20T03:51:08;11.45;;;7.18;;
17365;SDS011;8800;50.118;9.900;2023-08-20T03:53:35;12.00;;;7.95;;
17365;SDS011;8800;50.118;9.900;2023-08-20T03:56:02;9.32;;;6.75;;
17365;SDS011;8800;50.118;9.900;2023-08-20T03:58:35;9.27;;;7.25;;
17365;SDS011;8800;50.118;9.900;2023-08-20T04:01:02;12.30;;;7.53;;
17365;SDS011;8800;50.118;9.900;2023-08-20T04:03:30;10.32;;;7.38;;
17365;SDS011;8800;50.118;9.900;2023-08-20T04:05:57;11.35;;;7.70;;
17365;SDS011;8800;50.118;9.900;2023-08-20T04:08:24;11.50;;;7.70;;
17365;SDS011;8800;50.118;9.900;2023-08-20T04:10:50;12.27;;;7.57;;
17365;SDS011;8800;50.118;9.900;2023-08-20T04:13:17;10.07;;;7.38;;
17365;SDS011;8800;50.118;9.900;2023-08-20T04:15:44;11.18;;;7.63;;
17365;SDS011;8800;50.118;9.900;2023-08-20T04:18:10;14.38;;;7.63;;
17365;SDS011;8800;50.118;9.900;2023-08-20T04:20:38;10.65;;;7.28;;
17365;SDS011;8800;50.118;9.900;2023-08-20T04:23:04;11.15;;;7.40;;
17365;SDS011;8800;50.118;9.900;2023-08-20T04:25:31;8.15;;;6.35;;
17365;SDS011;8800;50.118;9.900;2023-08-20T04:27:57;10.15;;;7.20;;
17365;SDS011;8800;50.118;9.900;2023-08-20T04:30:24;12.27;;;7.32;;
17365;SDS011;8800;50.118;9.900;2023-08-20T04:32:50;9.15;;;6.65;;
17365;SDS011;8800;50.118;9.900;2023-08-20T04:35:17;9.05;;;7.35;;
17365;SDS011;8800;50.118;9.900;2023-08-20T04:37:45;9.00;;;6.68;;
17365;SDS011;8800;50.118;9.900;2023-08-20T04:40:12;11.07;;;7.50;;
17365;SDS011;8800;50.118;9.900;2023-08-20T04:42:38;10.02;;;7.75;;
17365;SDS011;8800;50.118;9.900;2023-08-20T04:45:05;10.45;;;7.50;;
17365;SDS011;8800;50.118;9.900;2023-08-20T04:47:32;12.00;;;7.80;;
17365;SDS011;8800;50.118;9.900;2023-08-20T04:49:59;12.88;;;8.27;;
17365;SDS011;8800;50.118;9.900;2023-08-20T04:52:26;12.73;;;7.95;;
17365;SDS011;8800;50.118;9.900;2023-08-20T04:54:54;11.27;;;7.72;;
17365;SDS011;8800;50.118;9.900;2023-08-20T04:57:21;10.23;;;7.72;;
17365;SDS011;8800;50.118;9.900;2023-08-20T04:59:48;10.85;;;7.55;;
17365;SDS011;8800;50.118;9.900;2023-08-20T05:02:15;12.43;;;7.90;;
17365;SDS011;8800;50.118;9.900;2023-08-20T05:04:41;11.02;;;7.93;;
17365;SDS011;8800;50.118;9.900;2023-08-20T05:07:08;15.98;;;8.40;;
17365;SDS011;8800;50.118;9.900;2023-08-20T05:09:34;11.40;;;8.05;;
17365;SDS011;8800;50.118;9.900;2023-08-20T05:12:02;13.60;;;8.07;;
17365;SDS011;8800;50.118;9.900;2023-08-20T05:14:29;12.57;;;8.23;;
17365;SDS011;8800;50.118;9.900;2023-08-20T05:16:56;10.90;;;8.07;;
17365;SDS011;8800;50.118;9.900;2023-08-20T05:19:22;11.00;;;8.23;;
17365;SDS011;8800;50.118;9.900;2023-08-20T05:21:49;12.68;;;8.27;;
17365;SDS011;8800;50.118;9.900;2023-08-20T05:24:16;11.57;;;8.20;;
17365;SDS011;8800;50.118;9.900;2023-08-20T05:26:43;12.02;;;8.43;;
17365;SDS011;8800;50.118;9.900;2023-08-20T05:29:11;14.23;;;8.68;;
17365;SDS011;8800;50.118;9.900;2023-08-20T05:31:37;11.68;;;8.18;;
17365;SDS011;8800;50.118;9.900;2023-08-20T05:34:04;11.13;;;8.18;;
17365;SDS011;8800;50.118;9.900;2023-08-20T05:36:30;15.10;;;8.30;;
17365;SDS011;8800;50.118;9.900;2023-08-20T05:38:57;11.98;;;8.30;;
17365;SDS011;8800;50.118;9.900;2023-08-20T05:41:23;9.85;;;7.80;;
17365;SDS011;8800;50.118;9.900;2023-08-20T05:43:50;16.42;;;8.27;;
17365;SDS011;8800;50.118;9.900;2023-08-20T05:46:18;12.73;;;8.18;;
17365;SDS011;8800;50.118;9.900;2023-08-20T05:48:47;14.25;;;8.18;;
17365;SDS011;8800;50.118;9.900;2023-08-20T05:51:14;11.27;;;7.93;;
17365;SDS011;8800;50.118;9.900;2023-08-20T05:53:41;10.68;;;8.48;;
17365;SDS011;8800;50.118;9.900;2023-08-20T05:56:08;11.55;;;8.13;;
17365;SDS011;8800;50.118;9.900;2023-08-20T05:58:34;13.65;;;8.10;;
17365;SDS011;8800;50.118;9.900;2023-08-20T06:01:00;11.73;;;8.48;;
17365;SDS011;8800;50.118;9.900;2023-08-20T06:03:28;11.85;;;8.23;;
17365;SDS011;8800;50.118;9.900;2023-08-20T06:05:56;12.52;;;8.65;;
17365;SDS011;8800;50.118;9.900;2023-08-20T06:08:23;13.07;;;8.00;;
17365;SDS011;8800;50.118;9.900;2023-08-20T06:10:49;12.63;;;8.25;;
17365;SDS011;8800;50.118;9.900;2023-08-20T06:13:17;14.18;;;9.02;;
17365;SDS011;8800;50.118;9.900;2023-08-20T06:15:43;12.27;;;8.43;;
17365;SDS011;8800;50.118;9.900;2023-08-20T06:18:10;13.13;;;7.53;;
17365;SDS011;8800;50.118;9.900;2023-08-20T06:20:38;12.07;;;8.13;;
17365;SDS011;8800;50.118;9.900;2023-08-20T06:23:04;13.25;;;8.05;;
17365;SDS011;8800;50.118;9.900;2023-08-20T06:25:31;11.88;;;8.25;;
17365;SDS011;8800;50.118;9.900;2023-08-20T06:27:57;16.25;;;8.02;;
17365;SDS011;8800;50.118;9.900;2023-08-20T06:30:24;10.55;;;7.90;;
17365;SDS011;8800;50.118;9.900;2023-08-20T06:32:51;14.18;;;8.30;;
17365;SDS011;8800;50.118;9.900;2023-08-20T06:35:17;11.98;;;8.43;;
17365;SDS011;8800;50.118;9.900;2023-08-20T06:37:47;14.05;;;9.25;;
17365;SDS011;8800;50.118;9.900;2023-08-20T06:40:13;11.63;;;8.13;;
17365;SDS011;8800;50.118;9.900;2023-08-20T06:42:40;10.65;;;8.18;;
17365;SDS011;8800;50.118;9.900;2023-08-20T06:45:07;11.93;;;8.45;;
17365;SDS011;8800;50.118;9.900;2023-08-20T06:47:34;14.38;;;8.25;;
17365;SDS011;8800;50.118;9.900;2023-08-20T06:50:01;12.77;;;8.25;;
17365;SDS011;8800;50.118;9.900;2023-08-20T06:52:27;10.95;;;7.50;;
17365;SDS011;8800;50.118;9.900;2023-08-20T06:54:55;12.02;;;7.85;;
17365;SDS011;8800;50.118;9.900;2023-08-20T06:57:22;11.27;;;8.30;;
17365;SDS011;8800;50.118;9.900;2023-08-20T06:59:48;14.48;;;8.30;;
17365;SDS011;8800;50.118;9.900;2023-08-20T07:02:15;10.38;;;7.82;;
17365;SDS011;8800;50.118;9.900;2023-08-20T07:04:41;10.15;;;7.85;;
17365;SDS011;8800;50.118;9.900;2023-08-20T07:07:08;12.05;;;7.97;;
17365;SDS011;8800;50.118;9.900;2023-08-20T07:09:34;14.80;;;7.88;;
17365;SDS011;8800;50.118;9.900;2023-08-20T07:12:05;11.38;;;7.10;;
17365;SDS011;8800;50.118;9.900;2023-08-20T07:14:32;15.18;;;7.97;;
17365;SDS011;8800;50.118;9.900;2023-08-20T07:16:58;12.60;;;7.43;;
17365;SDS011;8800;50.118;9.900;2023-08-20T07:19:27;13.35;;;6.72;;
17365;SDS011;8800;50.118;9.900;2023-08-20T07:21:56;11.15;;;7.22;;
17365;SDS011;8800;50.118;9.900;2023-08-20T07:24:23;12.85;;;6.93;;
17365;SDS011;8800;50.118;9.900;2023-08-20T07:26:50;13.30;;;6.85;;
17365;SDS011;8800;50.118;9.900;2023-08-20T07:29:18;9.40;;;7.03;;
17365;SDS011;8800;50.118;9.900;2023-08-20T07:31:45;12.13;;;7.45;;
17365;SDS011;8800;50.118;9.900;2023-08-20T07:34:11;8.65;;;6.32;;
17365;SDS011;8800;50.118;9.900;2023-08-20T07:36:39;9.55;;;6.47;;
17365;SDS011;8800;50.118;9.900;2023-08-20T07:39:07;12.18;;;6.60;;
17365;SDS011;8800;50.118;9.900;2023-08-20T07:41:34;10.70;;;6.90;;
17365;SDS011;8800;50.118;9.900;2023-08-20T07:44:01;9.88;;;6.32;;
17365;SDS011;8800;50.118;9.900;2023-08-20T07:46:29;11.68;;;6.63;;
17365;SDS011;8800;50.118;9.900;2023-08-20T07:48:55;11.48;;;6.72;;
17365;SDS011;8800;50.118;9.900;2023-08-20T07:51:22;10.80;;;6.32;;
17365;SDS011;8800;50.118;9.900;2023-08-20T07:53:48;8.77;;;6.57;;
17365;SDS011;8800;50.118;9.900;2023-08-20T07:56:15;8.23;;;6.18;;
17365;SDS011;8800;50.118;9.900;2023-08-20T07:58:41;14.07;;;6.50;;
17365;SDS011;8800;50.118;9.900;2023-08-20T08:01:08;9.77;;;6.50;;
17365;SDS011;8800;50.118;9.900;2023-08-20T08:03:36;10.48;;;7.22;;
17365;SDS011;8800;50.118;9.900;2023-08-20T08:06:03;8.40;;;6.22;;
17365;SDS011;8800;50.118;9.900;2023-08-20T08:08:29;12.40;;;6.97;;
17365;SDS011;8800;50.118;9.900;2023-08-20T08:10:56;6.95;;;6.15;;
17365;SDS011;8800;50.118;9.900;2023-08-20T08:13:23;12.43;;;6.30;;
17365;SDS011;8800;50.118;9.900;2023-08-20T08:15:49;9.48;;;6.57;;
17365;SDS011;8800;50.118;9.900;2023-08-20T08:18:16;11.13;;;6.57;;
17365;SDS011;8800;50.118;9.900;2023-08-20T08:20:45;13.85;;;6.68;;
17365;SDS011;8800;50.118;9.900;2023-08-20T08:23:12;9.57;;;6.78;;
17365;SDS011;8800;50.118;9.900;2023-08-20T08:25:41;9.13;;;7.07;;
17365;SDS011;8800;50.118;9.900;2023-08-20T08:28:09;9.32;;;6.47;;
17365;SDS011;8800;50.118;9.900;2023-08-20T08:30:36;8.95;;;6.43;;
17365;SDS011;8800;50.118;9.900;2023-08-20T08:33:03;10.00;;;6.68;;
17365;SDS011;8800;50.118;9.900;2023-08-20T08:35:30;16.73;;;6.93;;
17365;SDS011;8800;50.118;9.900;2023-08-20T08:37:57;10.00;;;7.10;;
17365;SDS011;8800;50.118;9.900;2023-08-20T08:40:25;11.00;;;6.65;;
17365;SDS011;8800;50.118;9.900;2023-08-20T08:42:54;9.20;;;7.00;;
17365;SDS011;8800;50.118;9.900;2023-08-20T08:45:20;11.27;;;7.07;;
17365;SDS011;8800;50.118;9.900;2023-08-20T08:47:47;10.32;;;6.68;;
17365;SDS011;8800;50.118;9.900;2023-08-20T08:50:14;12.38;;;7.28;;
17365;SDS011;8800;50.118;9.900;2023-08-20T08:52:41;11.88;;;7.10;;
17365;SDS011;8800;50.118;9.900;2023-08-20T08:55:09;11.32;;;6.85;;
17365;SDS011;8800;50.118;9.900;2023-08-20T08:57:36;9.20;;;6.47;;
17365;SDS011;8800;50.118;9.900;2023-08-20T09:00:02;8.90;;;6.47;;
17365;SDS011;8800;50.118;9.900;2023-08-20T09:02:29;9.18;;;6.60;;
17365;SDS011;8800;50.118;9.900;2023-08-20T09:04:56;11.45;;;6.88;;
17365;SDS011;8800;50.118;9.900;2023-08-20T09:07:22;10.57;;;6.50;;
17365;SDS011;8800;50.118;9.900;2023-08-20T09:09:49;7.95;;;6.32;;
17365;SDS011;8800;50.118;9.900;2023-08-20T09:12:20;12.98;;;6.90;;
17365;SDS011;8800;50.118;9.900;2023-08-20T09:14:47;11.38;;;6.38;;
17365;SDS011;8800;50.118;9.900;2023-08-20T09:17:14;9.20;;;6.70;;
17365;SDS011;8800;50.118;9.900;2023-08-20T09:19:41;10.63;;;6.50;;
17365;SDS011;8800;50.118;9.900;2023-08-20T09:22:08;8.65;;;6.30;;
17365;SDS011;8800;50.118;9.900;2023-08-20T09:24:39;11.00;;;7.53;;
17365;SDS011;8800;50.118;9.900;2023-08-20T09:27:07;8.82;;;6.80;;
17365;SDS011;8800;50.118;9.900;2023-08-20T09:29:36;10.07;;;6.95;;
17365;SDS011;8800;50.118;9.900;2023-08-20T09:32:09;7.90;;;6.30;;
17365;SDS011;8800;50.118;9.900;2023-08-20T09:34:39;8.88;;;6.47;;
17365;SDS011;8800;50.118;9.900;2023-08-20T09:37:09;10.48;;;6.53;;
17365;SDS011;8800;50.118;9.900;2023-08-20T09:39:36;10.90;;;6.30;;
17365;SDS011;8800;50.118;9.900;2023-08-20T09:42:03;9.52;;;6.53;;
17365;SDS011;8800;50.118;9.900;2023-08-20T09:44:31;10.25;;;6.80;;
17365;SDS011;8800;50.118;9.900;2023-08-20T09:47:00;7.55;;;6.65;;
17365;SDS011;8800;50.118;9.900;2023-08-20T09:49:28;10.82;;;6.53;;
17365;SDS011;8800;50.118;9.900;2023-08-20T09:51:55;9.68;;;7.00;;
17365;SDS011;8800;50.118;9.900;2023-08-20T09:54:24;8.75;;;6.95;;
17365;SDS011;8800;50.118;9.900;2023-08-20T09:56:54;14.15;;;7.43;;
17365;SDS011;8800;50.118;9.900;2023-08-20T09:59:21;9.73;;;6.68;;
17365;SDS011;8800;50.118;9.900;2023-08-20T10:01:48;9.38;;;6.88;;
17365;SDS011;8800;50.118;9.900;2023-08-20T10:04:16;11.65;;;6.63;;
17365;SDS011;8800;50.118;9.900;2023-08-20T10:06:44;10.05;;;7.07;;
17365;SDS011;8800;50.118;9.900;2023-08-20T10:09:10;7.65;;;6.57;;
17365;SDS011;8800;50.118;9.900;2023-08-20T10:11:38;8.32;;;6.68;;
17365;SDS011;8800;50.118;9.900;2023-08-20T10:14:06;13.45;;;7.32;;
17365;SDS011;8800;50.118;9.900;2023-08-20T10:16:32;9.75;;;6.60;;
17365;SDS011;8800;50.118;9.900;2023-08-20T10:19:01;9.45;;;6.32;;
17365;SDS011;8800;50.118;9.900;2023-08-20T10:21:31;10.40;;;6.88;;
17365;SDS011;8800;50.118;9.900;2023-08-20T10:24:02;9.68;;;6.70;;
17365;SDS011;8800;50.118;9.900;2023-08-20T10:26:32;9.52;;;6.72;;
17365;SDS011;8800;50.118;9.900;2023-08-20T10:31:45;9.73;;;6.53;;
17365;SDS011;8800;50.118;9.900;2023-08-20T10:34:12;10.75;;;7.63;;
17365;SDS011;8800;50.118;9.900;2023-08-20T10:36:50;12.55;;;6.78;;
17365;SDS011;8800;50.118;9.900;2023-08-20T10:39:19;14.48;;;7.15;;
17365;SDS011;8800;50.118;9.900;2023-08-20T10:41:50;8.90;;;6.72;;
17365;SDS011;8800;50.118;9.900;2023-08-20T10:47:16;9.05;;;6.95;;
17365;SDS011;8800;50.118;9.900;2023-08-20T10:49:43;11.43;;;7.13;;
17365;SDS011;8800;50.118;9.900;2023-08-20T10:52:13;8.15;;;6.90;;
17365;SDS011;8800;50.118;9.900;2023-08-20T10:54:40;7.65;;;6.78;;
17365;SDS011;8800;50.118;9.900;2023-08-20T10:57:07;10.48;;;7.25;;
17365;SDS011;8800;50.118;9.900;2023-08-20T10:59:34;11.45;;;7.13;;
17365;SDS011;8800;50.118;9.900;2023-08-20T11:02:05;7.85;;;7.05;;
17365;SDS011;8800;50.118;9.900;2023-08-20T11:04:34;9.30;;;6.85;;
17365;SDS011;8800;50.118;9.900;2023-08-20T11:07:01;11.45;;;6.78;;
17365;SDS011;8800;50.118;9.900;2023-08-20T11:09:30;9.35;;;6.80;;
17365;SDS011;8800;50.118;9.900;2023-08-20T11:11:57;10.63;;;7.03;;
17365;SDS011;8800;50.118;9.900;2023-08-20T11:14:24;12.88;;;6.53;;
17365;SDS011;8800;50.118;9.900;2023-08-20T11:16:51;9.27;;;6.72;;
17365;SDS011;8800;50.118;9.900;2023-08-20T11:19:18;12.23;;;6.70;;
17365;SDS011;8800;50.118;9.900;2023-08-20T11:21:45;10.85;;;7.13;;
17365;SDS011;8800;50.118;9.900;2023-08-20T11:24:12;9.73;;;6.55;;
17365;SDS011;8800;50.118;9.900;2023-08-20T11:26:41;9.80;;;7.22;;
17365;SDS011;8800;50.118;9.900;2023-08-20T11:29:08;11.05;;;7.00;;
17365;SDS011;8800;50.118;9.900;2023-08-20T11:31:35;13.38;;;7.15;;
17365;SDS011;8800;50.118;9.900;2023-08-20T11:34:03;8.75;;;6.45;;
17365;SDS011;8800;50.118;9.900;2023-08-20T11:36:30;9.98;;;6.53;;
17365;SDS011;8800;50.118;9.900;2023-08-20T11:38:57;8.77;;;6.60;;
17365;SDS011;8800;50.118;9.900;2023-08-20T11:41:24;9.55;;;6.88;;
17365;SDS011;8800;50.118;9.900;2023-08-20T11:43:52;8.98;;;6.43;;
17365;SDS011;8800;50.118;9.900;2023-08-20T11:46:20;11.73;;;6.68;;
17365;SDS011;8800;50.118;9.900;2023-08-20T11:49:00;9.38;;;6.97;;
17365;SDS011;8800;50.118;9.900;2023-08-20T11:51:28;7.85;;;5.97;;
17365;SDS011;8800;50.118;9.900;2023-08-20T11:53:55;9.38;;;6.45;;
17365;SDS011;8800;50.118;9.900;2023-08-20T11:56:21;9.20;;;6.70;;
17365;SDS011;8800;50.118;9.900;2023-08-20T11:58:49;13.32;;;6.50;;
17365;SDS011;8800;50.118;9.900;2023-08-20T12:01:18;10.88;;;6.38;;
17365;SDS011;8800;50.118;9.900;2023-08-20T12:03:45;11.27;;;6.95;;
17365;SDS011;8800;50.118;9.900;2023-08-20T12:06:18;11.68;;;6.68;;
17365;SDS011;8800;50.118;9.900;2023-08-20T12:08:45;7.85;;;6.68;;
17365;SDS011;8800;50.118;9.900;2023-08-20T12:11:12;9.68;;;6.72;;
17365;SDS011;8800;50.118;9.900;2023-08-20T12:13:38;9.00;;;6.55;;
17365;SDS011;8800;50.118;9.900;2023-08-20T12:16:05;12.68;;;6.55;;
17365;SDS011;8800;50.118;9.900;2023-08-20T12:18:33;10.02;;;6.03;;
17365;SDS011;8800;50.118;9.900;2023-08-20T12:21:00;9.50;;;6.40;;
17365;SDS011;8800;50.118;9.900;2023-08-20T12:23:27;8.05;;;6.22;;
17365;SDS011;8800;50.118;9.900;2023-08-20T12:25:54;6.75;;;6.05;;
17365;SDS011;8800;50.118;9.900;2023-08-20T12:28:20;8.95;;;6.80;;
17365;SDS011;8800;50.118;9.900;2023-08-20T12:30:47;8.95;;;6.32;;
17365;SDS011;8800;50.118;9.900;2023-08-20T12:33:14;7.15;;;6.45;;
17365;SDS011;8800;50.118;9.900;2023-08-20T12:35:42;9.80;;;6.53;;
17365;SDS011;8800;50.118;9.900;2023-08-20T12:38:08;10.75;;;6.57;;
17365;SDS011;8800;50.118;9.900;2023-08-20T12:40:35;6.78;;;5.82;;
17365;SDS011;8800;50.118;9.900;2023-08-20T12:43:01;10.00;;;6.45;;
17365;SDS011;8800;50.118;9.900;2023-08-20T12:45:28;10.23;;;6.40;;
17365;SDS011;8800;50.118;9.900;2023-08-20T12:47:55;10.57;;;6.50;;
17365;SDS011;8800;50.118;9.900;2023-08-20T12:50:21;8.50;;;5.90;;
17365;SDS011;8800;50.118;9.900;2023-08-20T12:52:52;9.07;;;6.22;;
17365;SDS011;8800;50.118;9.900;2023-08-20T12:55:18;8.95;;;6.85;;
17365;SDS011;8800;50.118;9.900;2023-08-20T12:57:52;9.82;;;6.15;;
17365;SDS011;8800;50.118;9.900;2023-08-20T13:00:18;9.57;;;6.03;;
17365;SDS011;8800;50.118;9.900;2023-08-20T13:02:45;10.95;;;6.30;;
17365;SDS011;8800;50.118;9.900;2023-08-20T13:05:12;8.95;;;6.22;;
17365;SDS011;8800;50.118;9.900;2023-08-20T13:07:39;11.82;;;6.28;;
17365;SDS011;8800;50.118;9.900;2023-08-20T13:10:08;10.48;;;5.88;;
17365;SDS011;8800;50.118;9.900;2023-08-20T13:12:35;8.02;;;5.53;;
17365;SDS011;8800;50.118;9.900;2023-08-20T13:15:02;7.93;;;5.90;;
17365;SDS011;8800;50.118;9.900;2023-08-20T13:17:30;6.95;;;5.40;;
17365;SDS011;8800;50.118;9.900;2023-08-20T13:19:57;11.98;;;5.55;;
17365;SDS011;8800;50.118;9.900;2023-08-20T13:22:23;8.65;;;5.47;;
17365;SDS011;8800;50.118;9.900;2023-08-20T13:24:50;7.22;;;5.43;;
17365;SDS011;8800;50.118;9.900;2023-08-20T13:27:18;10.30;;;5.97;;
17365;SDS011;8800;50.118;9.900;2023-08-20T13:29:44;6.95;;;5.70;;
17365;SDS011;8800;50.118;9.900;2023-08-20T13:32:11;8.82;;;5.70;;
17365;SDS011;8800;50.118;9.900;2023-08-20T13:34:38;8.45;;;5.78;;
17365;SDS011;8800;50.118;9.900;2023-08-20T13:37:05;8.38;;;5.45;;
17365;SDS011;8800;50.118;9.900;2023-08-20T13:39:32;10.05;;;5.55;;
17365;SDS011;8800;50.118;9.900;2023-08-20T13:41:58;10.88;;;5.97;;
17365;SDS011;8800;50.118;9.900;2023-08-20T13:44:26;9.93;;;5.55;;
17365;SDS011;8800;50.118;9.900;2023-08-20T13:46:53;7.90;;;5.40;;
17365;SDS011;8800;50.118;9.900;2023-08-20T13:49:19;7.45;;;5.07;;
17365;SDS011;8800;50.118;9.900;2023-08-20T13:51:46;6.30;;;5.20;;
17365;SDS011;8800;50.118;9.900;2023-08-20T13:54:12;10.25;;;5.10;;
17365;SDS011;8800;50.118;9.900;2023-08-20T13:56:39;7.53;;;5.50;;
17365;SDS011;8800;50.118;9.900;2023-08-20T13:59:06;6.95;;;5.50;;
17365;SDS011;8800;50.118;9.900;2023-08-20T14:01:34;7.18;;;5.47;;
17365;SDS011;8800;50.118;9.900;2023-08-20T14:04:00;7.22;;;5.35;;
17365;SDS011;8800;50.118;9.900;2023-08-20T14:06:27;9.23;;;5.85;;
17365;SDS011;8800;50.118;9.900;2023-08-20T14:08:53;9.45;;;5.60;;
17365;SDS011;8800;50.118;9.900;2023-08-20T14:11:20;8.52;;;5.78;;
17365;SDS011;8800;50.118;9.900;2023-08-20T14:13:46;11.23;;;6.05;;
17365;SDS011;8800;50.118;9.900;2023-08-20T14:16:13;6.40;;;5.65;;
17365;SDS011;8800;50.118;9.900;2023-08-20T14:18:55;6.47;;;5.65;;
17365;SDS011;8800;50.118;9.900;2023-08-20T14:21:21;6.75;;;5.78;;
17365;SDS011;8800;50.118;9.900;2023-08-20T14:23:48;9.55;;;5.55;;
17365;SDS011;8800;50.118;9.900;2023-08-20T14:26:14;7.15;;;6.10;;
17365;SDS011;8800;50.118;9.900;2023-08-20T14:28:41;8.10;;;5.90;;
17365;SDS011;8800;50.118;9.900;2023-08-20T14:31:09;7.80;;;5.82;;
17365;SDS011;8800;50.118;9.900;2023-08-20T14:33:35;7.63;;;5.50;;
17365;SDS011;8800;50.118;9.900;2023-08-20T14:36:03;7.22;;;5.20;;
17365;SDS011;8800;50.118;9.900;2023-08-20T14:38:30;7.90;;;5.55;;
17365;SDS011;8800;50.118;9.900;2023-08-20T14:40:58;7.15;;;4.80;;
17365;SDS011;8800;50.118;9.900;2023-08-20T14:43:25;6.30;;;5.10;;
17365;SDS011;8800;50.118;9.900;2023-08-20T14:45:52;7.40;;;5.80;;
17365;SDS011;8800;50.118;9.900;2023-08-20T14:48:19;6.95;;;4.85;;
17365;SDS011;8800;50.118;9.900;2023-08-20T14:50:45;6.40;;;5.70;;
17365;SDS011;8800;50.118;9.900;2023-08-20T14:53:14;5.90;;;5.40;;
17365;SDS011;8800;50.118;9.900;2023-08-20T14:55:41;9.82;;;5.25;;
17365;SDS011;8800;50.118;9.900;2023-08-20T14:58:07;6.78;;;5.20;;